Terminal Aerodrome Forecast
Issued by NWS

Home | Current Version | Previous Version | Text Only | Print | Product List | Glossary On
Versions: 1 2 3 4 5 6 7 8 9 10 11 12 13 14 15 16 17 18 19 20 21 22 23 24
000
FTUS42 KMFL 221745
TAFTMB
TAF
KTMB 221745Z 2218/2318 14012KT P6SM SCT040 SCT250
     FM230000 12005KT P6SM FEW050 SCT250
     FM231200 16011KT P6SM SCT025 SCT040 SCT250=

USA.gov is the U.S. government's official web portal to all federal, state and local government web resources and services.